Carlotta, California
Current Conditions -  °F | °C
As of 11:55 PM on Friday 19 Dec 2014 (Local Time) from KFOT Reporting Station
Broken Clouds Broken Clouds  
Wind Chill: 54°   Ceiling: 7000
Heat Index: 54°   Visibility: 10mi
Dew Point: 48°   Wind: 14mph
Humidity: 82%   Direction: 150°SSE
Pressure: 30.07"   Gusts: NA
Location:  40.54°N, 124.06°W
Report Text: KFOT 200755Z AUTO 15012KT 10SM FEW035 SCT047 BKN070 12/09 A3007 RMK AO1
Loading
Personal Weather Stations






























Interactive Weather Map New forecast layout! Learn more

10-Day Weather Forecast

Advertisements
Track Severe Weather on mobile